Time;durP1;ratioP1;P1;durP2;ratioP2;P2;SDS_P1;SDS_P2;PMS_P1;PMS_P2;Temp;Humidity;BMP_temperature;BMP_pressure;BME280_temperature;BME280_humidity;BME280_pressure;Samples;Min_cycle;Max_cycle;Signal;HPM_P1;HPM_P2
2021/07/18 00:00:41;;;;;;;52.65;24.58;;;;;;;16.30;100.00;94285.31;5075691;28;20205;-80
2021/07/18 00:03:08;;;;;;;51.97;22.42;;;;;;;16.25;100.00;94285.97;5075670;28;20209;-80
2021/07/18 00:05:34;;;;;;;54.72;24.67;;;;;;;16.28;100.00;94277.63;5074626;28;20672;-80
2021/07/18 00:08:04;;;;;;;43.25;23.15;;;;;;;16.17;100.00;94276.59;5075268;28;20199;-81
2021/07/18 00:10:30;;;;;;;52.22;22.70;;;;;;;16.13;100.00;94280.66;5069411;28;20226;-80
2021/07/18 00:12:58;;;;;;;46.47;22.33;;;;;;;16.09;100.00;94272.41;5060932;28;20206;-80
2021/07/18 00:15:24;;;;;;;53.67;23.17;;;;;;;16.12;100.00;94272.97;5075283;28;20214;-81
2021/07/18 00:17:51;;;;;;;48.25;24.00;;;;;;;16.18;100.00;94278.16;5075251;28;20210;-79
2021/07/18 00:20:18;;;;;;;48.42;21.83;;;;;;;16.17;100.00;94271.31;5054688;28;20214;-80
2021/07/18 00:22:44;;;;;;;45.58;22.65;;;;;;;16.16;100.00;94274.97;5074034;28;20225;-80
2021/07/18 00:25:12;;;;;;;42.75;22.20;;;;;;;16.21;100.00;94269.81;5055077;28;20196;-78
2021/07/18 00:27:38;;;;;;;44.67;22.52;;;;;;;16.30;100.00;94270.31;5054870;28;20235;-79
2021/07/18 00:30:09;;;;;;;49.15;22.90;;;;;;;16.34;100.00;94271.50;5054973;28;20203;-81
2021/07/18 00:32:38;;;;;;;48.53;25.08;;;;;;;16.38;100.00;94271.84;5054218;28;20432;-79
2021/07/18 00:35:07;;;;;;;47.15;21.65;;;;;;;16.37;100.00;94270.22;5054682;28;20223;-80
2021/07/18 00:37:34;;;;;;;42.15;20.00;;;;;;;16.34;100.00;94270.69;5054889;28;20301;-79
2021/07/18 00:40:01;;;;;;;34.70;18.58;;;;;;;16.36;100.00;94273.91;5054796;28;20207;-79
2021/07/18 00:42:27;;;;;;;52.03;21.77;;;;;;;16.36;100.00;94266.00;5054519;28;20625;-79
2021/07/18 00:44:56;;;;;;;45.55;21.73;;;;;;;16.38;100.00;94267.38;5054772;28;20199;-79
2021/07/18 00:47:24;;;;;;;39.13;20.35;;;;;;;16.37;100.00;94271.03;5054575;28;20227;-79
2021/07/18 00:49:51;;;;;;;52.15;23.50;;;;;;;16.43;100.00;94266.69;5055153;28;20199;-78
2021/07/18 00:52:18;;;;;;;48.50;22.02;;;;;;;16.42;100.00;94265.06;5054616;28;20257;-80
2021/07/18 00:54:44;;;;;;;36.08;17.38;;;;;;;16.39;100.00;94262.91;5054443;28;20654;-80
2021/07/18 00:57:11;;;;;;;53.83;20.25;;;;;;;16.48;100.00;94260.75;5054446;28;20276;-79
2021/07/18 00:59:39;;;;;;;48.90;22.67;;;;;;;16.53;100.00;94264.31;5054269;28;20705;-80
2021/07/18 01:02:05;;;;;;;44.90;22.13;;;;;;;16.47;100.00;94257.31;5054203;28;20689;-80
2021/07/18 01:04:33;;;;;;;45.17;21.42;;;;;;;16.45;100.00;94264.63;5054394;28;20285;-81
2021/07/18 01:07:00;;;;;;;38.15;20.23;;;;;;;16.44;100.00;94265.69;5054385;28;20666;-78
2021/07/18 01:09:27;;;;;;;47.58;23.17;;;;;;;16.39;100.00;94262.91;5054287;28;20540;-81
2021/07/18 01:11:54;;;;;;;42.92;19.77;;;;;;;16.30;100.00;94261.59;5054178;28;20207;-80
2021/07/18 01:14:21;;;;;;;49.70;19.65;;;;;;;16.29;100.00;94258.19;5054002;28;20199;-80
2021/07/18 01:16:47;;;;;;;45.40;22.95;;;;;;;16.23;100.00;94251.94;5052910;28;20459;-79
2021/07/18 01:19:19;;;;;;;34.92;17.60;;;;;;;16.21;100.00;94246.13;5053067;28;20199;-80
2021/07/18 01:21:55;;;;;;;38.58;17.55;;;;;;;16.18;100.00;94257.09;5054094;28;20206;-80
2021/07/18 01:24:22;;;;;;;28.40;16.55;;;;;;;16.12;100.00;94260.63;5067137;28;20645;-80
2021/07/18 01:26:48;;;;;;;33.72;16.17;;;;;;;16.02;100.00;94252.44;5073526;28;20731;-79
2021/07/18 01:29:15;;;;;;;31.90;15.38;;;;;;;15.97;100.00;94257.56;5073690;28;20194;-79
2021/07/18 01:31:42;;;;;;;33.60;15.00;;;;;;;15.90;100.00;94250.56;5073996;28;20202;-79
2021/07/18 01:34:10;;;;;;;28.95;14.73;;;;;;;15.75;100.00;94252.72;5073713;28;20198;-81
2021/07/18 01:36:37;;;;;;;30.55;14.88;;;;;;;15.60;100.00;94252.31;5073638;28;20242;-79
2021/07/18 01:39:07;;;;;;;30.95;16.40;;;;;;;15.53;100.00;94250.53;5073562;28;20276;-79
2021/07/18 01:41:33;;;;;;;39.20;17.05;;;;;;;15.41;100.00;94252.31;5073543;28;20291;-82
2021/07/18 01:44:00;;;;;;;36.30;16.92;;;;;;;15.42;100.00;94248.66;5073621;28;20198;-81
2021/07/18 01:46:27;;;;;;;31.88;16.83;;;;;;;15.32;100.00;94243.91;5073572;28;20244;-81
2021/07/18 01:48:54;;;;;;;33.53;16.00;;;;;;;15.13;100.00;94243.06;5073375;28;20926;-80
2021/07/18 01:51:22;;;;;;;34.25;16.63;;;;;;;14.97;100.00;94251.50;5073487;28;20289;-82
2021/07/18 01:53:50;;;;;;;30.45;15.95;;;;;;;14.84;100.00;94246.34;5073294;28;20290;-81
2021/07/18 01:56:18;;;;;;;33.10;16.77;;;;;;;14.75;100.00;94243.97;5073036;28;20716;-79
2021/07/18 01:58:47;;;;;;;35.90;18.23;;;;;;;14.74;100.00;94234.50;5073432;28;20198;-80
2021/07/18 02:01:13;;;;;;;51.00;24.35;;;;;;;14.89;100.00;94236.81;5072604;28;20495;-80
2021/07/18 02:03:40;;;;;;;36.58;19.90;;;;;;;14.82;100.00;94243.13;5073295;28;20264;-79
2021/07/18 02:06:06;;;;;;;38.60;16.95;;;;;;;14.73;100.00;94245.22;5073096;28;20677;-78
2021/07/18 02:08:33;;;;;;;36.10;17.95;;;;;;;14.62;100.00;94238.81;5073080;28;20194;-79
2021/07/18 02:10:59;;;;;;;40.22;17.58;;;;;;;14.49;100.00;94239.72;5072973;28;20203;-79
2021/07/18 02:13:27;;;;;;;38.60;18.88;;;;;;;14.56;100.00;94245.72;5073194;28;20209;-78
2021/07/18 02:15:53;;;;;;;44.05;19.75;;;;;;;14.53;100.00;94251.41;5072659;28;20199;-80
2021/07/18 02:18:20;;;;;;;36.80;18.23;;;;;;;14.56;100.00;94261.50;5073000;28;20620;-79
2021/07/18 02:20:46;;;;;;;46.05;19.20;;;;;;;14.66;100.00;94250.53;5072978;28;20322;-80
2021/07/18 02:23:13;;;;;;;42.30;19.98;;;;;;;14.63;100.00;94245.69;5072843;28;20195;-80
2021/07/18 02:25:39;;;;;;;34.08;16.95;;;;;;;14.60;100.00;94251.38;5072729;28;20207;-80
2021/07/18 02:28:06;;;;;;;38.92;16.67;;;;;;;14.59;100.00;94261.09;5072657;28;20231;-80
2021/07/18 02:30:34;;;;;;;38.08;18.60;;;;;;;14.71;100.00;94261.22;5072697;28;20195;-81
2021/07/18 02:33:00;;;;;;;51.80;20.70;;;;;;;14.70;100.00;94256.16;5072924;28;20198;-80
2021/07/18 02:35:27;;;;;;;37.97;18.33;;;;;;;14.68;100.00;94252.94;5072873;28;20553;-81
2021/07/18 02:37:54;;;;;;;40.17;18.15;;;;;;;14.64;100.00;94263.09;5072754;28;20234;-79
2021/07/18 02:40:22;;;;;;;36.60;17.95;;;;;;;14.65;100.00;94271.78;5072903;28;20236;-80
2021/07/18 02:42:49;;;;;;;34.13;17.42;;;;;;;14.64;100.00;94270.97;5072911;28;20199;-81
2021/07/18 02:45:18;;;;;;;40.83;19.75;;;;;;;14.67;100.00;94269.72;5072795;28;20202;-80
2021/07/18 02:47:47;;;;;;;43.95;18.92;;;;;;;14.68;100.00;94272.16;5072833;28;20282;-79
2021/07/18 02:50:16;;;;;;;39.72;17.40;;;;;;;14.66;100.00;94266.31;5072638;28;20252;-80
2021/07/18 02:52:43;;;;;;;38.53;17.33;;;;;;;14.65;100.00;94262.06;5072574;28;20202;-80
2021/07/18 02:55:11;;;;;;;39.92;17.25;;;;;;;14.61;100.00;94268.78;5072805;28;20199;-80
2021/07/18 02:57:37;;;;;;;41.92;17.83;;;;;;;14.59;100.00;94255.03;5072673;28;20229;-79
2021/07/18 03:00:07;;;;;;;33.60;16.08;;;;;;;14.63;100.00;94261.47;5072619;28;20206;-81
2021/07/18 03:02:33;;;;;;;30.40;14.45;;;;;;;14.53;100.00;94261.13;5072552;28;20228;-80
2021/07/18 03:05:01;;;;;;;26.65;14.90;;;;;;;14.43;100.00;94262.38;5072463;28;20211;-79
2021/07/18 03:07:28;;;;;;;41.55;15.55;;;;;;;14.43;100.00;94266.84;5072622;28;20293;-79
2021/07/18 03:09:54;;;;;;;27.48;13.55;;;;;;;14.22;100.00;94271.41;5072612;28;20203;-80
2021/07/18 03:12:21;;;;;;;29.23;13.82;;;;;;;14.13;100.00;94262.16;5072635;28;20211;-81
2021/07/18 03:14:47;;;;;;;33.13;13.85;;;;;;;14.01;100.00;94269.88;5072425;28;20203;-80
2021/07/18 03:17:14;;;;;;;30.48;15.55;;;;;;;13.95;100.00;94265.47;5072332;28;20285;-80
2021/07/18 03:19:40;;;;;;;30.40;15.13;;;;;;;13.82;100.00;94265.50;5072249;28;20199;-80
2021/07/18 03:22:08;;;;;;;26.73;14.68;;;;;;;13.69;100.00;94267.19;5072564;28;20210;-80
2021/07/18 03:24:35;;;;;;;34.65;14.80;;;;;;;13.62;100.00;94271.66;5072284;28;20241;-81
2021/07/18 03:27:01;;;;;;;31.58;14.27;;;;;;;13.49;100.00;94277.75;5072400;28;20878;-81
2021/07/18 03:29:28;;;;;;;30.00;15.63;;;;;;;13.43;100.00;94277.75;5071424;28;20823;-81
2021/07/18 03:31:55;;;;;;;25.13;13.23;;;;;;;13.37;100.00;94273.31;5072242;28;20202;-81
2021/07/18 03:34:24;;;;;;;34.78;15.25;;;;;;;13.37;100.00;94265.47;5072481;28;20202;-79
2021/07/18 03:36:51;;;;;;;23.70;12.07;;;;;;;13.21;100.00;94264.84;5072356;28;20222;-81
2021/07/18 03:39:19;;;;;;;24.60;12.45;;;;;;;13.16;100.00;94269.91;5072355;28;20199;-80
2021/07/18 03:41:46;;;;;;;24.55;12.50;;;;;;;13.00;100.00;94267.72;5073890;28;20260;-80
2021/07/18 03:44:12;;;;;;;27.40;13.25;;;;;;;12.98;100.00;94274.97;5075710;28;20356;-79
2021/07/18 03:46:39;;;;;;;23.73;11.60;;;;;;;12.83;100.00;94267.31;5075743;28;20285;-80
2021/07/18 03:49:05;;;;;;;28.38;12.93;;;;;;;12.85;100.00;94266.09;5075849;28;20281;-79
2021/07/18 03:51:32;;;;;;;27.42;13.18;;;;;;;12.82;100.00;94263.06;5076002;28;20202;-80
2021/07/18 03:53:58;;;;;;;29.40;13.00;;;;;;;12.71;100.00;94267.13;5075645;28;20264;-80
2021/07/18 03:56:26;;;;;;;26.33;12.18;;;;;;;12.70;100.00;94262.88;5075650;28;20546;-80
2021/07/18 03:58:53;;;;;;;30.83;14.43;;;;;;;12.75;100.00;94261.25;5075447;28;20276;-79
2021/07/18 04:01:22;;;;;;;28.08;13.88;;;;;;;12.67;100.00;94252.78;5075867;28;20195;-79
2021/07/18 04:03:48;;;;;;;30.73;12.85;;;;;;;12.58;100.00;94255.59;5075604;28;20202;-79
2021/07/18 04:06:18;;;;;;;29.48;14.05;;;;;;;12.58;100.00;94253.00;5075383;28;20195;-79
2021/07/18 04:08:45;;;;;;;35.30;15.77;;;;;;;12.64;100.00;94258.44;5075386;28;20289;-79
2021/07/18 04:11:13;;;;;;;33.38;13.52;;;;;;;12.63;100.00;94267.31;5075342;28;20195;-80
2021/07/18 04:13:41;;;;;;;34.25;16.10;;;;;;;12.59;100.00;94267.72;5073956;28;20461;-80
2021/07/18 04:16:08;;;;;;;29.52;14.40;;;;;;;12.55;100.00;94266.47;5075182;28;20661;-80
2021/07/18 04:18:34;;;;;;;33.90;13.23;;;;;;;12.53;100.00;94268.50;5075283;28;20226;-79
2021/07/18 04:21:01;;;;;;;36.15;13.13;;;;;;;12.49;100.00;94267.31;5075278;28;20290;-80
2021/07/18 04:23:28;;;;;;;22.50;12.07;;;;;;;12.48;100.00;94272.75;5074930;28;20657;-79
2021/07/18 04:25:54;;;;;;;27.60;13.02;;;;;;;12.48;100.00;94260.44;5074815;28;20200;-79
2021/07/18 04:28:21;;;;;;;27.27;12.35;;;;;;;12.47;100.00;94264.06;5074866;28;20206;-80
2021/07/18 04:30:49;;;;;;;21.38;11.55;;;;;;;12.43;100.00;94268.09;5075121;28;20201;-80
2021/07/18 04:33:15;;;;;;;31.05;13.35;;;;;;;12.44;100.00;94263.66;5075017;28;20201;-81
2021/07/18 04:35:42;;;;;;;23.52;12.65;;;;;;;12.43;100.00;94268.09;5074945;28;20209;-81
2021/07/18 04:38:08;;;;;;;28.27;13.13;;;;;;;12.45;100.00;94271.31;5074731;28;20222;-81
2021/07/18 04:40:36;;;;;;;30.05;13.75;;;;;;;12.52;100.00;94271.31;5075047;28;20209;-81
2021/07/18 04:43:02;;;;;;;24.13;12.40;;;;;;;12.49;100.00;94267.31;5074953;28;20237;-81
2021/07/18 04:45:29;;;;;;;29.13;11.15;;;;;;;12.52;100.00;94264.28;5074761;28;20199;-80
2021/07/18 04:47:59;;;;;;;25.88;11.90;;;;;;;12.57;100.00;94264.50;5074789;28;20280;-81
2021/07/18 04:50:27;;;;;;;24.10;11.27;;;;;;;12.58;100.00;94270.53;5074640;28;20557;-80
2021/07/18 04:52:54;;;;;;;29.60;12.45;;;;;;;12.65;100.00;94268.72;5074363;28;20199;-80
2021/07/18 04:55:21;;;;;;;21.25;11.70;;;;;;;12.68;100.00;94270.94;5074352;28;20263;-81
2021/07/18 04:57:47;;;;;;;32.05;12.35;;;;;;;12.75;100.00;94270.94;5074513;28;20479;-79
2021/07/18 05:00:17;;;;;;;22.30;11.30;;;;;;;12.83;100.00;94272.56;5074240;28;20661;-80
2021/07/18 05:02:44;;;;;;;22.48;11.23;;;;;;;12.92;100.00;94274.78;5074452;28;20202;-79
2021/07/18 05:05:13;;;;;;;22.75;11.52;;;;;;;13.01;100.00;94279.81;5074297;28;20195;-80
2021/07/18 05:07:50;;;;;;;29.23;11.73;;;;;;;13.07;100.00;94278.97;5074224;28;20207;-79
2021/07/18 05:10:18;;;;;;;22.30;11.93;;;;;;;13.12;100.00;94273.94;5074338;28;20234;-79
2021/07/18 05:12:45;;;;;;;24.33;11.27;;;;;;;13.22;100.00;94276.97;5074144;28;20206;-79
2021/07/18 05:15:12;;;;;;;31.73;11.85;;;;;;;13.23;100.00;94275.94;5074167;28;20202;-79
2021/07/18 05:17:39;;;;;;;21.40;10.75;;;;;;;13.26;100.00;94272.91;5073843;28;20264;-79
2021/07/18 05:20:08;;;;;;;27.17;10.55;;;;;;;13.35;100.00;94275.34;5073989;28;20199;-79
2021/07/18 05:22:36;;;;;;;22.90;10.18;;;;;;;13.43;100.00;94288.25;5073894;28;20714;-79
2021/07/18 05:25:07;;;;;;;15.52;9.20;;;;;;;13.56;100.00;94287.44;5073638;28;20195;-79
2021/07/18 05:27:35;;;;;;;21.42;9.68;;;;;;;13.51;100.00;94280.97;5073741;28;20234;-79
2021/07/18 05:30:07;;;;;;;18.67;9.43;;;;;;;13.59;100.00;94287.81;5073849;28;20209;-79
2021/07/18 05:32:34;;;;;;;21.10;9.05;;;;;;;13.79;100.00;94286.91;5073864;28;20203;-79
2021/07/18 05:35:02;;;;;;;15.50;8.82;;;;;;;13.90;100.00;94285.50;5073482;28;20199;-79
2021/07/18 05:37:30;;;;;;;18.10;9.15;;;;;;;14.12;100.00;94281.56;5073594;28;20234;-81
2021/07/18 05:40:01;;;;;;;18.33;10.20;;;;;;;14.31;100.00;94277.22;5073698;28;20305;-79
2021/07/18 05:42:27;;;;;;;20.40;11.18;;;;;;;14.71;100.00;94278.81;5073404;28;20473;-80
2021/07/18 05:44:59;;;;;;;14.23;8.90;;;;;;;15.17;100.00;94265.28;5073567;28;20202;-81
2021/07/18 05:47:26;;;;;;;12.82;7.03;;;;;;;16.11;100.00;94269.56;5073966;28;20230;-81
2021/07/18 05:49:52;;;;;;;18.33;7.35;;;;;;;17.60;100.00;94273.16;5073580;28;20199;-80
2021/07/18 05:52:19;;;;;;;11.32;5.32;;;;;;;19.12;100.00;94267.53;5073229;28;20561;-80
2021/07/18 05:54:46;;;;;;;9.25;4.60;;;;;;;19.95;100.00;94277.44;5073208;28;20195;-81
2021/07/18 05:57:13;;;;;;;8.68;4.30;;;;;;;20.73;100.00;94279.09;5073313;28;20546;-79
2021/07/18 05:59:40;;;;;;;10.35;4.95;;;;;;;21.00;100.00;94276.41;5073183;28;20301;-81
2021/07/18 06:02:06;;;;;;;8.25;3.95;;;;;;;20.27;100.00;94288.16;5073103;28;20252;-80
2021/07/18 06:04:33;;;;;;;10.30;4.57;;;;;;;20.19;100.00;94278.00;5072542;28;20723;-80
2021/07/18 06:06:59;;;;;;;9.93;4.70;;;;;;;20.68;100.00;94278.03;5073298;28;20206;-80
2021/07/18 06:09:26;;;;;;;6.65;4.20;;;;;;;20.96;99.13;94278.78;5073257;28;20203;-80
2021/07/18 06:11:52;;;;;;;7.65;4.47;;;;;;;21.11;95.03;94285.28;5073113;28;20211;-79
2021/07/18 06:14:20;;;;;;;13.25;5.07;;;;;;;19.96;98.02;94287.00;5072959;28;20677;-80
2021/07/18 06:16:47;;;;;;;9.18;4.13;;;;;;;20.69;96.97;94290.22;5072908;28;20202;-80
2021/07/18 06:19:13;;;;;;;8.02;3.60;;;;;;;21.20;93.98;94294.38;5072626;28;20276;-80
2021/07/18 06:21:40;;;;;;;5.72;3.95;;;;;;;20.68;97.10;94293.13;5073139;28;20198;-80
2021/07/18 06:24:06;;;;;;;7.07;3.55;;;;;;;20.69;96.62;94290.22;5072972;28;20198;-80
2021/07/18 06:26:36;;;;;;;8.43;3.70;;;;;;;20.73;97.87;94284.41;5072906;28;20303;-80
2021/07/18 06:29:02;;;;;;;11.63;4.68;;;;;;;19.92;100.00;94283.25;5072815;28;20210;-80
2021/07/18 06:31:30;;;;;;;8.55;4.22;;;;;;;19.98;100.00;94284.09;5072837;28;20297;-80
2021/07/18 06:33:57;;;;;;;6.68;3.83;;;;;;;19.69;100.00;94281.59;5072974;28;20198;-79
2021/07/18 06:36:23;;;;;;;7.70;4.55;;;;;;;19.33;100.00;94295.09;5073222;28;20199;-79
2021/07/18 06:38:50;;;;;;;9.32;4.47;;;;;;;18.38;100.00;94297.44;5072576;28;20586;-79
2021/07/18 06:41:18;;;;;;;10.30;4.85;;;;;;;18.22;100.00;94290.28;5072841;28;20198;-78
2021/07/18 06:43:44;;;;;;;9.15;5.13;;;;;;;17.51;100.00;94285.09;5072683;28;20230;-77
2021/07/18 06:46:11;;;;;;;13.52;5.68;;;;;;;17.68;100.00;94293.91;5072899;28;20260;-78
2021/07/18 06:48:39;;;;;;;12.82;5.28;;;;;;;17.78;100.00;94300.47;5072611;28;20230;-79
2021/07/18 06:51:06;;;;;;;12.40;5.18;;;;;;;18.18;100.00;94294.44;5072823;28;20210;-78
2021/07/18 06:53:32;;;;;;;8.15;3.75;;;;;;;18.97;100.00;94305.16;5072683;28;20203;-80
2021/07/18 06:55:59;;;;;;;10.30;4.40;;;;;;;19.22;100.00;94293.38;5072692;28;20207;-82
2021/07/18 06:58:25;;;;;;;10.10;4.45;;;;;;;19.89;100.00;94296.97;5072385;28;20238;-80
2021/07/18 07:00:52;;;;;;;11.13;4.50;;;;;;;20.06;100.00;94307.53;5072498;28;20654;-81
2021/07/18 07:03:18;;;;;;;9.38;4.35;;;;;;;20.00;100.00;94305.84;5072732;28;20203;-79
2021/07/18 07:05:46;;;;;;;9.45;4.65;;;;;;;19.46;100.00;94301.91;5072565;28;20211;-78
2021/07/18 07:08:12;;;;;;;11.98;4.60;;;;;;;19.25;100.00;94313.25;5072661;28;20260;-79
2021/07/18 07:10:40;;;;;;;9.10;5.03;;;;;;;19.20;100.00;94313.97;5072432;28;20794;-79
2021/07/18 07:13:07;;;;;;;7.45;4.32;;;;;;;19.18;100.00;94319.50;5071359;28;20529;-81
2021/07/18 07:15:34;;;;;;;8.93;4.53;;;;;;;19.25;100.00;94321.97;5072691;28;20205;-80
2021/07/18 07:18:01;;;;;;;6.43;3.83;;;;;;;19.19;100.00;94325.63;5076267;28;20589;-79
2021/07/18 07:20:28;;;;;;;13.38;4.70;;;;;;;18.99;100.00;94320.78;5076335;28;20534;-80
2021/07/18 07:22:56;;;;;;;10.82;3.90;;;;;;;19.04;100.00;94316.38;5076242;28;20199;-79
2021/07/18 07:25:22;;;;;;;11.00;3.85;;;;;;;18.74;100.00;94313.97;5076024;28;20199;-80
2021/07/18 07:27:49;;;;;;;5.22;3.75;;;;;;;18.67;100.00;94311.47;5075997;28;20237;-79
2021/07/18 07:30:18;;;;;;;8.52;4.50;;;;;;;18.64;100.00;94314.59;5076123;28;20572;-80
2021/07/18 07:32:45;;;;;;;9.38;4.85;;;;;;;18.57;100.00;94315.78;5075898;28;20604;-79
2021/07/18 07:35:14;;;;;;;11.85;4.32;;;;;;;18.43;100.00;94313.41;5075856;28;20202;-80
2021/07/18 07:37:41;;;;;;;14.85;4.55;;;;;;;18.35;100.00;94319.06;5075921;28;20195;-80
2021/07/18 07:40:11;;;;;;;10.98;4.95;;;;;;;18.15;100.00;94314.19;5076089;28;20235;-80
2021/07/18 07:42:38;;;;;;;9.63;3.90;;;;;;;18.31;100.00;94313.44;5076099;28;20195;-78
2021/07/18 07:45:05;;;;;;;10.95;4.88;;;;;;;18.36;100.00;94322.53;5075641;28;20434;-78
2021/07/18 07:47:32;;;;;;;8.60;4.07;;;;;;;17.81;100.00;94314.00;5075883;28;20244;-77
2021/07/18 07:49:59;;;;;;;8.38;4.40;;;;;;;17.70;100.00;94310.34;5075732;28;20230;-77
2021/07/18 07:52:25;;;;;;;14.70;4.40;;;;;;;17.97;100.00;94307.25;5075539;28;20237;-78
2021/07/18 07:54:52;;;;;;;12.88;4.80;;;;;;;17.69;100.00;94311.38;5075841;28;20616;-78
2021/07/18 07:57:20;;;;;;;9.90;4.70;;;;;;;17.60;100.00;94304.84;5074986;28;20443;-80
2021/07/18 07:59:46;;;;;;;11.50;4.65;;;;;;;17.72;100.00;94316.22;5075512;28;20230;-80
2021/07/18 08:02:13;;;;;;;7.35;4.18;;;;;;;17.75;100.00;94307.81;5075513;28;20675;-78
2021/07/18 08:04:39;;;;;;;7.03;3.67;;;;;;;17.60;100.00;94298.75;5075499;28;20207;-77
2021/07/18 08:07:06;;;;;;;16.63;3.85;;;;;;;17.72;100.00;94303.00;5075332;28;20662;-79
2021/07/18 08:09:32;;;;;;;7.60;3.80;;;;;;;17.53;100.00;94299.66;5075546;28;20201;-78
2021/07/18 08:11:59;;;;;;;11.98;4.30;;;;;;;17.18;100.00;94304.94;5075544;28;20202;-78
2021/07/18 08:14:26;;;;;;;8.20;3.67;;;;;;;17.14;100.00;94306.44;5075395;28;20198;-78
2021/07/18 08:16:53;;;;;;;8.23;4.30;;;;;;;17.24;100.00;94301.41;5075365;28;20206;-78
2021/07/18 08:19:20;;;;;;;9.90;3.30;;;;;;;17.30;100.00;94305.78;5075173;28;20238;-81
2021/07/18 08:21:46;;;;;;;10.60;4.03;;;;;;;17.54;100.00;94303.13;5075020;28;20207;-78
2021/07/18 08:24:13;;;;;;;10.30;3.50;;;;;;;17.61;100.00;94301.16;5075161;28;20604;-79
2021/07/18 08:26:39;;;;;;;5.70;3.25;;;;;;;17.47;100.00;94313.00;5073833;28;21479;-80
2021/07/18 08:29:06;;;;;;;8.18;3.85;;;;;;;17.72;100.00;94303.00;5075160;28;20211;-78
2021/07/18 08:31:34;;;;;;;8.35;4.00;;;;;;;17.96;100.00;94305.63;5074228;28;20434;-80
2021/07/18 08:34:00;;;;;;;8.23;3.25;;;;;;;18.16;100.00;94304.44;5074932;28;20199;-80
2021/07/18 08:36:27;;;;;;;8.85;3.15;;;;;;;18.21;100.00;94309.81;5075162;28;20195;-80
2021/07/18 08:38:53;;;;;;;7.90;3.47;;;;;;;18.31;100.00;94310.81;5074859;28;20280;-78
2021/07/18 08:41:22;;;;;;;8.90;3.78;;;;;;;18.15;100.00;94306.25;5074691;28;20222;-78
2021/07/18 08:43:49;;;;;;;6.55;3.10;;;;;;;18.21;100.00;94305.34;5074744;28;20241;-81
2021/07/18 08:46:18;;;;;;;8.05;3.53;;;;;;;18.49;100.00;94306.41;5074742;28;20202;-79
2021/07/18 08:48:47;;;;;;;6.60;3.40;;;;;;;18.58;100.00;94309.44;5074439;28;20244;-80
2021/07/18 08:51:13;;;;;;;7.32;3.13;;;;;;;18.77;100.00;94318.81;5074521;28;20562;-79
2021/07/18 08:53:41;;;;;;;8.13;3.40;;;;;;;18.82;100.00;94316.25;5074376;28;20677;-79
2021/07/18 08:56:09;;;;;;;4.57;2.55;;;;;;;18.85;100.00;94321.09;5074403;28;20650;-78
2021/07/18 08:58:36;;;;;;;8.75;3.47;;;;;;;18.91;100.00;94311.38;5074323;28;20223;-78
2021/07/18 09:01:02;;;;;;;11.73;3.15;;;;;;;18.94;100.00;94312.78;5074314;28;20203;-78
2021/07/18 09:03:29;;;;;;;9.98;3.40;;;;;;;18.88;100.00;94313.72;5074251;28;20199;-80
2021/07/18 09:06:07;;;;;;;6.90;3.17;;;;;;;18.89;100.00;94316.13;5074427;28;20198;-80
2021/07/18 09:08:41;;;;;;;8.48;4.05;;;;;;;18.82;100.00;94310.16;5074358;28;20245;-80
2021/07/18 09:11:20;;;;;;;6.80;3.20;;;;;;;18.91;100.00;94308.75;5074337;28;20198;-80
2021/07/18 09:13:57;;;;;;;7.63;3.63;;;;;;;19.00;100.00;94298.56;5074002;28;20206;-81
2021/07/18 09:16:29;;;;;;;10.40;3.28;;;;;;;18.64;100.00;94293.44;5073962;28;20564;-81
2021/07/18 09:19:15;;;;;;;6.97;3.15;;;;;;;18.80;100.00;94302.47;5073924;28;20693;-81
2021/07/18 09:21:50;;;;;;;8.38;3.42;;;;;;;19.04;100.00;94302.34;5074024;28;20684;-80
2021/07/18 09:24:24;;;;;;;8.02;3.50;;;;;;;19.16;100.00;94297.75;5073713;28;20700;-82
2021/07/18 09:27:08;;;;;;;10.23;3.50;;;;;;;19.12;100.00;94293.19;5071231;28;20855;-76
2021/07/18 09:29:36;;;;;;;9.68;3.13;;;;;;;19.35;100.00;94293.03;5073632;28;20212;-79
2021/07/18 09:32:04;;;;;;;12.25;3.58;;;;;;;19.31;100.00;94291.13;5071875;28;20207;-81
2021/07/18 09:34:37;;;;;;;7.63;3.50;;;;;;;19.33;100.00;94289.03;5074431;28;20205;-83
2021/07/18 09:37:07;;;;;;;18.25;3.85;;;;;;;19.15;100.00;94290.06;5094427;28;20729;-83
2021/07/18 09:39:33;;;;;;;7.35;3.50;;;;;;;19.12;100.00;94299.31;5092965;28;20225;-80
2021/07/18 09:42:00;;;;;;;9.60;2.90;;;;;;;19.37;100.00;94290.94;5093861;28;20198;-78
2021/07/18 09:44:26;;;;;;;7.30;3.03;;;;;;;19.38;100.00;94289.09;5093749;28;20198;-80
2021/07/18 09:47:01;;;;;;;5.20;2.55;;;;;;;19.42;100.00;94284.94;5093724;28;20194;-78
2021/07/18 09:49:32;;;;;;;9.02;2.83;;;;;;;19.39;100.00;94290.72;5093897;28;20271;-80
2021/07/18 09:52:19;;;;;;;11.68;3.22;;;;;;;19.44;100.00;94290.78;5093600;28;20256;-80
2021/07/18 09:54:46;;;;;;;5.40;2.58;;;;;;;19.18;100.00;94287.72;5093685;28;20201;-80
2021/07/18 09:57:29;;;;;;;7.75;2.53;;;;;;;19.31;100.00;94285.81;5093611;28;20209;-78
2021/07/18 09:59:58;;;;;;;6.90;2.80;;;;;;;19.37;100.00;94290.16;5093084;28;20298;-81
2021/07/18 10:02:26;;;;;;;5.82;2.90;;;;;;;19.62;100.00;94307.44;5093764;28;20203;-80
2021/07/18 10:04:53;;;;;;;7.70;2.60;;;;;;;19.43;100.00;94289.16;5093389;28;20194;-79
2021/07/18 10:07:23;;;;;;;3.80;2.20;;;;;;;19.46;100.00;94283.38;5093561;28;20198;-82
2021/07/18 10:09:53;;;;;;;4.10;2.17;;;;;;;19.64;100.00;94284.19;5093311;28;20202;-82
2021/07/18 10:12:19;;;;;;;6.95;2.65;;;;;;;19.99;100.00;94280.41;5092891;28;20440;-78
2021/07/18 10:14:46;;;;;;;6.90;2.33;;;;;;;20.05;100.00;94274.09;5093533;28;20205;-80
2021/07/18 10:17:13;;;;;;;13.35;2.92;;;;;;;20.07;100.00;94280.00;5093304;28;20202;-81
2021/07/18 10:19:40;;;;;;;3.50;2.17;;;;;;;20.14;100.00;94277.94;5093137;28;20222;-80
2021/07/18 10:22:08;;;;;;;10.00;2.03;;;;;;;20.36;100.00;94277.91;5093113;28;20242;-80
2021/07/18 10:24:36;;;;;;;9.25;2.60;;;;;;;20.20;100.00;94271.66;5078016;28;20202;-82
2021/07/18 10:27:04;;;;;;;6.55;2.65;;;;;;;20.19;100.00;94279.84;5072924;28;20234;-79
2021/07/18 10:29:32;;;;;;;5.45;2.42;;;;;;;20.19;100.00;94278.00;5072960;28;20202;-81
2021/07/18 10:32:02;;;;;;;9.85;2.30;;;;;;;20.30;100.00;94271.75;5072812;28;20199;-81
2021/07/18 10:34:31;;;;;;;7.53;2.40;;;;;;;20.41;100.00;94282.47;5072585;28;20202;-79
2021/07/18 10:36:58;;;;;;;9.32;2.38;;;;;;;20.13;99.68;94276.31;5072760;28;20204;-77
2021/07/18 10:39:29;;;;;;;6.18;2.20;;;;;;;20.15;99.11;94275.03;5072879;28;20299;-80
2021/07/18 10:42:01;;;;;;;7.45;2.58;;;;;;;20.19;100.00;94275.34;5072908;28;20298;-77
2021/07/18 10:44:38;;;;;;;7.25;2.30;;;;;;;20.13;100.00;94266.53;5072917;28;20195;-82
2021/07/18 10:47:05;;;;;;;4.30;2.30;;;;;;;20.26;100.00;94267.19;5072864;28;20206;-82
2021/07/18 10:49:57;;;;;;;10.15;2.15;;;;;;;20.37;99.76;94270.75;5072683;28;20811;-81
2021/07/18 10:52:28;;;;;;;7.43;2.30;;;;;;;20.57;100.00;94270.16;5077052;28;20260;-81
2021/07/18 10:54:54;;;;;;;5.15;1.85;;;;;;;20.78;96.04;94271.19;5076932;28;20205;-79
2021/07/18 10:57:29;;;;;;;5.32;2.38;;;;;;;21.00;100.00;94263.97;5076847;28;20722;-77
2021/07/18 10:59:56;;;;;;;7.15;1.85;;;;;;;20.95;97.51;94263.94;5076638;28;20221;-78
2021/07/18 11:02:33;;;;;;;10.13;2.03;;;;;;;21.13;92.13;94261.91;5076930;28;20252;-80
2021/07/18 11:05:01;;;;;;;6.07;2.10;;;;;;;21.22;97.20;94255.88;5076793;28;20230;-80
2021/07/18 11:07:36;;;;;;;8.90;2.20;;;;;;;21.28;94.29;94270.00;5076873;28;20297;-81
2021/07/18 11:10:14;;;;;;;8.65;2.38;;;;;;;20.88;90.08;94260.66;5076597;28;20206;-75
2021/07/18 11:12:45;;;;;;;5.90;2.33;;;;;;;20.85;96.69;94271.78;5076825;28;20191;-80
2021/07/18 11:15:37;;;;;;;5.60;2.05;;;;;;;21.03;89.46;94274.09;5076621;28;20195;-77
2021/07/18 11:18:13;;;;;;;8.43;2.10;;;;;;;20.74;93.00;94267.44;5076498;28;20257;-78
2021/07/18 11:21:03;;;;;;;7.15;2.00;;;;;;;21.06;95.07;94262.94;5076235;28;20226;-80